Con. actuales
Overcast
Conditions



PressiĆ³n:
1010.92 (hPa) - 29.85 (inHG)
Visibilidad:

10.0 (km) - 6.2 (miles)
Base de Nubes

549 (Mts) - 1800 (Feets)
   Temperatura
19  °C
Temperatura
15  °C
78  %
 Humedad
   Velocidad del Viento
16  km/h
9  kts
10  mph
4.5  m/s
   Wind Direction
N
45°
E
90°
135°
S
180°
225°
O
270°
315°
 90°

Del   Easte
   Airport Data
SAEZ
Ministro Pistarini International Airport
Metar :SAEZ 191900Z 09009KT 9999 OVC018 19/15 Q1011 NOSIG
Sun 19th September 16:00 pm
   Raw Metar Info
Raw METAR is the most common format in the world for the transmission of observational weather data. It is highly standardized through the International Civil Aviation Organization (ICAO), which allows it to be understood throughout most of the world.
   API Info
Data Provided by
https://www.checkwx.com/weather/SAEZ

Aviation Weather providing METAR, TAF, AIRMET, SIGMET and OUTLOOK Weather Reports
   © Info
CSS/SVG/PHP scripts were developed by weather34.com for use in the weather34 template © 2015-2021

Guide Info provided by Metar-Wikipedia